createdAt,value
2018-02-24T00:02:18.992Z,-1.80
2018-02-24T00:04:45.189Z,-1.90
2018-02-24T00:07:11.380Z,-1.80
2018-02-24T00:09:37.601Z,-1.80
2018-02-24T00:12:03.808Z,-1.90
2018-02-24T00:14:30.014Z,-2.00
2018-02-24T00:16:56.231Z,-2.00
2018-02-24T00:19:22.432Z,-2.00
2018-02-24T00:21:48.685Z,-2.00
2018-02-24T00:24:15.641Z,-2.10
2018-02-24T00:26:43.062Z,-2.10
2018-02-24T00:29:09.302Z,-2.30
2018-02-24T00:31:35.654Z,-2.10
2018-02-24T00:34:02.054Z,-2.10
2018-02-24T00:36:28.281Z,-2.10
2018-02-24T00:38:54.523Z,-2.10
2018-02-24T00:41:21.482Z,-2.20
2018-02-24T00:43:47.709Z,-2.20
2018-02-24T00:46:13.939Z,-2.10
2018-02-24T00:48:40.152Z,-2.10
2018-02-24T00:51:06.402Z,-2.30
2018-02-24T00:53:32.615Z,-2.20
2018-02-24T00:55:58.841Z,-2.30
2018-02-24T00:58:25.060Z,-2.30
2018-02-24T01:00:51.349Z,-2.30
2018-02-24T01:03:17.547Z,-2.40
2018-02-24T01:05:44.499Z,-2.30
2018-02-24T01:08:10.700Z,-2.10
2018-02-24T01:10:38.481Z,-2.30
2018-02-24T01:13:04.680Z,-2.30
2018-02-24T01:15:30.911Z,-2.30
2018-02-24T01:17:57.136Z,-2.40
2018-02-24T01:20:24.131Z,-2.40
2018-02-24T01:22:50.336Z,-2.40
2018-02-24T01:25:16.588Z,-2.40
2018-02-24T01:27:43.550Z,-2.50
2018-02-24T01:30:09.765Z,-2.50
2018-02-24T01:32:36.007Z,-2.50
2018-02-24T01:35:02.228Z,-2.50
2018-02-24T01:37:28.476Z,-2.40
2018-02-24T01:39:54.683Z,-2.40
2018-02-24T01:42:20.914Z,-2.40
2018-02-24T01:44:47.140Z,-2.40
2018-02-24T01:47:13.365Z,-2.40
2018-02-24T01:49:40.285Z,-2.40
2018-02-24T01:52:06.518Z,-2.40
2018-02-24T01:54:32.709Z,-2.40
2018-02-24T01:56:58.931Z,-2.50
2018-02-24T01:59:25.119Z,-2.50
2018-02-24T02:01:52.114Z,-2.60
2018-02-24T02:04:18.330Z,-2.60
2018-02-24T02:06:44.566Z,-2.50
2018-02-24T02:09:10.790Z,-2.60
2018-02-24T02:11:37.000Z,-2.60
2018-02-24T02:14:03.229Z,-2.60
2018-02-24T02:16:30.178Z,-2.50
2018-02-24T02:18:56.801Z,-2.60
2018-02-24T02:21:23.010Z,-2.60
2018-02-24T02:23:49.205Z,-2.60
2018-02-24T02:26:15.468Z,-2.60
2018-02-24T02:28:42.437Z,-2.60
2018-02-24T02:31:09.348Z,-2.80
2018-02-24T02:33:36.291Z,-2.70
2018-02-24T02:36:02.453Z,-2.70
2018-02-24T02:38:28.640Z,-2.70
2018-02-24T02:40:54.841Z,-2.70
2018-02-24T02:43:21.050Z,-2.70
2018-02-24T02:45:47.261Z,-2.70
2018-02-24T02:48:13.484Z,-2.80
2018-02-24T02:50:39.696Z,-2.70
2018-02-24T02:53:05.910Z,-2.70
2018-02-24T02:55:32.102Z,-3.00
2018-02-24T02:57:58.319Z,-2.80
2018-02-24T03:00:24.569Z,-2.80
2018-02-24T03:02:50.769Z,-2.80
2018-02-24T03:05:16.969Z,-2.70
2018-02-24T03:07:43.906Z,-2.80
2018-02-24T03:10:10.093Z,-2.80
2018-02-24T03:12:37.157Z,-2.80
2018-02-24T03:15:03.371Z,-2.80
2018-02-24T03:17:29.609Z,-2.80
2018-02-24T03:19:58.225Z,-2.70
2018-02-24T03:22:24.459Z,-2.80
2018-02-24T03:24:50.679Z,-2.70
2018-02-24T03:27:17.633Z,-2.80
2018-02-24T03:29:43.841Z,-2.80
2018-02-24T03:32:10.076Z,-2.70
2018-02-24T03:34:36.272Z,-2.80
2018-02-24T03:37:02.482Z,-2.80
2018-02-24T03:39:29.037Z,-2.90
2018-02-24T03:41:56.079Z,-2.80
2018-02-24T03:44:22.261Z,-2.90
2018-02-24T03:46:48.474Z,-2.80
2018-02-24T03:49:14.656Z,-2.80
2018-02-24T03:51:40.838Z,-2.90
2018-02-24T03:54:07.038Z,-2.70
2018-02-24T03:56:33.233Z,-2.80
2018-02-24T03:58:59.442Z,-2.90
2018-02-24T04:01:25.665Z,-2.80
2018-02-24T04:03:51.910Z,-2.80
2018-02-24T04:06:18.110Z,-2.90
2018-02-24T04:08:45.055Z,-2.90
2018-02-24T04:11:11.254Z,-3.00
2018-02-24T04:13:37.458Z,-3.00
2018-02-24T04:16:03.661Z,-2.90
2018-02-24T04:18:29.860Z,-2.80
2018-02-24T04:20:56.105Z,-2.90
2018-02-24T04:23:22.337Z,-3.00
2018-02-24T04:25:48.602Z,-3.10
2018-02-24T04:28:14.849Z,-3.00
2018-02-24T04:30:41.065Z,-3.00
2018-02-24T04:33:07.293Z,-2.90
2018-02-24T04:35:33.517Z,-3.00
2018-02-24T04:38:00.476Z,-2.90
2018-02-24T04:40:26.691Z,-2.90
2018-02-24T04:42:52.896Z,-2.90
2018-02-24T04:45:19.136Z,-2.90
2018-02-24T04:47:45.337Z,-3.00
2018-02-24T04:50:11.546Z,-2.80
2018-02-24T04:52:37.745Z,-2.80
2018-02-24T04:55:03.931Z,-2.90
2018-02-24T04:57:30.142Z,-2.90
2018-02-24T04:59:56.337Z,-2.90
2018-02-24T05:02:23.280Z,-3.00
2018-02-24T05:04:49.535Z,-3.00
2018-02-24T05:07:16.475Z,-3.00
2018-02-24T05:09:42.684Z,-3.00
2018-02-24T05:12:08.924Z,-2.90
2018-02-24T05:14:35.152Z,-3.00
2018-02-24T05:17:01.389Z,-3.00
2018-02-24T05:19:27.624Z,-3.10
2018-02-24T05:21:53.828Z,-3.00
2018-02-24T05:24:20.098Z,-3.10
2018-02-24T05:26:46.357Z,-3.00
2018-02-24T05:29:16.876Z,-3.00
2018-02-24T05:31:43.095Z,-3.10
2018-02-24T05:34:10.044Z,-3.00
2018-02-24T05:36:36.991Z,-3.10
2018-02-24T05:39:03.948Z,-3.00
2018-02-24T05:41:30.175Z,-3.00
2018-02-24T05:43:56.401Z,-3.10
2018-02-24T05:46:22.740Z,-3.00
2018-02-24T05:48:48.982Z,-2.90
2018-02-24T05:51:15.213Z,-2.80
2018-02-24T05:53:41.475Z,-3.00
2018-02-24T05:56:07.692Z,-3.00
2018-02-24T05:58:33.944Z,-3.00
2018-02-24T06:01:00.177Z,-3.00
2018-02-24T06:03:26.392Z,-3.10
2018-02-24T06:05:52.721Z,-3.10
2018-02-24T06:08:19.101Z,-3.10
2018-02-24T06:10:45.347Z,-3.10
2018-02-24T06:13:11.902Z,-3.10
2018-02-24T06:15:39.023Z,-3.10
2018-02-24T06:18:05.969Z,-3.20
2018-02-24T06:20:32.208Z,-3.20
2018-02-24T06:22:58.438Z,-3.20
2018-02-24T06:25:25.434Z,-3.10
2018-02-24T06:27:51.649Z,-3.10
2018-02-24T06:30:17.877Z,-3.00
2018-02-24T06:32:44.085Z,-3.10
2018-02-24T06:35:10.350Z,-3.00
2018-02-24T06:37:36.601Z,-3.00
2018-02-24T06:40:03.688Z,-3.00
2018-02-24T06:42:29.915Z,-3.10
2018-02-24T06:44:56.921Z,-3.00
2018-02-24T06:47:23.130Z,-3.00
2018-02-24T06:49:49.356Z,-3.00
2018-02-24T06:52:15.585Z,-3.00
2018-02-24T06:54:42.568Z,-2.90
2018-02-24T06:57:09.611Z,-2.90
2018-02-24T06:59:36.554Z,-2.80
2018-02-24T07:02:02.871Z,-2.90
2018-02-24T07:04:29.061Z,-2.90
2018-02-24T07:06:56.022Z,-3.00
2018-02-24T07:09:22.220Z,-3.00
2018-02-24T07:11:49.273Z,-2.90
2018-02-24T07:14:15.494Z,-2.90
2018-02-24T07:16:41.722Z,-2.80
2018-02-24T07:19:08.769Z,-2.70
2018-02-24T07:21:35.098Z,-2.70
2018-02-24T07:24:01.288Z,-2.60
2018-02-24T07:26:27.496Z,-2.50
2018-02-24T07:28:53.738Z,-2.40
2018-02-24T07:31:20.681Z,-2.40
2018-02-24T07:33:46.905Z,-2.40
2018-02-24T07:36:12.940Z,-2.40
2018-02-24T07:38:38.971Z,-2.40
2018-02-24T07:41:05.027Z,-2.20
2018-02-24T07:43:31.078Z,-2.20
2018-02-24T07:45:57.122Z,-2.50
2018-02-24T07:48:23.140Z,-2.30
2018-02-24T07:50:49.214Z,-2.30
2018-02-24T07:53:15.985Z,-2.20
2018-02-24T07:55:42.751Z,-2.10
2018-02-24T07:58:08.784Z,-2.10
2018-02-24T08:00:35.609Z,-2.00
2018-02-24T08:03:01.630Z,-2.00
2018-02-24T08:05:27.646Z,-1.80
2018-02-24T08:07:53.655Z,-1.80
2018-02-24T08:10:19.694Z,-1.80
2018-02-24T08:12:45.734Z,-1.70
2018-02-24T08:15:11.768Z,-1.70
2018-02-24T08:17:37.803Z,-1.40
2018-02-24T08:20:03.873Z,-1.70
2018-02-24T08:22:29.910Z,-1.50
2018-02-24T08:24:56.696Z,-1.40
2018-02-24T08:27:22.737Z,-1.40
2018-02-24T08:29:48.752Z,-1.20
2018-02-24T08:32:14.770Z,-0.80
2018-02-24T08:34:40.788Z,-0.60
2018-02-24T08:37:06.812Z,-0.50
2018-02-24T08:39:32.857Z,-0.10
2018-02-24T08:41:58.908Z,0.20
2018-02-24T08:44:24.925Z,0.50
2018-02-24T08:46:50.945Z,0.60
2018-02-24T08:49:17.032Z,0.90
2018-02-24T08:51:43.076Z,1.00
2018-02-24T08:54:09.211Z,1.10
2018-02-24T08:56:35.366Z,1.60
2018-02-24T08:59:01.489Z,1.60
2018-02-24T09:01:27.521Z,1.70
2018-02-24T09:03:53.547Z,1.80
2018-02-24T09:06:19.586Z,1.70
2018-02-24T09:08:45.608Z,1.60
2018-02-24T09:11:12.402Z,1.60
2018-02-24T09:13:39.165Z,1.60
2018-02-24T09:16:05.925Z,1.80
2018-02-24T09:18:32.686Z,1.70
2018-02-24T09:20:59.455Z,2.00
2018-02-24T09:23:25.469Z,2.00
2018-02-24T09:25:51.502Z,2.10
2018-02-24T09:28:18.248Z,2.00
2018-02-24T09:30:44.280Z,1.90
2018-02-24T09:33:11.055Z,2.10
2018-02-24T09:35:37.093Z,2.10
2018-02-24T09:38:03.230Z,2.40
2018-02-24T09:40:29.301Z,2.30
2018-02-24T09:42:55.307Z,1.90
2018-02-24T09:45:21.408Z,2.60
2018-02-24T09:47:48.176Z,2.70
2018-02-24T09:50:14.933Z,2.80
2018-02-24T09:52:41.781Z,3.00
2018-02-24T09:55:08.520Z,3.10
2018-02-24T09:57:34.533Z,3.10
2018-02-24T10:00:00.572Z,3.50
2018-02-24T10:02:26.673Z,3.90
2018-02-24T10:04:52.781Z,4.10
2018-02-24T10:07:19.000Z,4.10
2018-02-24T10:09:45.025Z,4.30
2018-02-24T10:12:11.890Z,4.10
2018-02-24T10:14:38.018Z,4.00
2018-02-24T10:17:04.095Z,3.70
2018-02-24T10:19:30.131Z,3.50
2018-02-24T10:21:56.894Z,4.00
2018-02-24T10:24:23.109Z,4.00
2018-02-24T10:26:49.984Z,3.80
2018-02-24T10:29:15.996Z,3.80
2018-02-24T10:31:42.765Z,3.80
2018-02-24T10:34:09.665Z,4.00
2018-02-24T10:36:35.681Z,4.00
2018-02-24T10:39:01.696Z,4.60
2018-02-24T10:41:28.461Z,3.80
2018-02-24T10:43:54.493Z,3.80
2018-02-24T10:46:20.569Z,3.70
2018-02-24T10:48:46.666Z,3.70
2018-02-24T10:51:13.396Z,3.90
2018-02-24T10:53:40.176Z,3.90
2018-02-24T10:56:06.201Z,3.90
2018-02-24T10:58:32.229Z,4.00
2018-02-24T11:00:59.013Z,3.60
2018-02-24T11:03:25.079Z,3.60
2018-02-24T11:05:51.179Z,3.60
2018-02-24T11:08:17.170Z,3.90
2018-02-24T11:10:43.420Z,4.20
2018-02-24T11:13:09.681Z,4.30
2018-02-24T11:15:35.883Z,4.40
2018-02-24T11:18:02.137Z,4.60
2018-02-24T11:20:28.358Z,4.50
2018-02-24T11:22:55.246Z,4.60
2018-02-24T11:25:21.572Z,4.30
2018-02-24T11:27:47.796Z,4.00
2018-02-24T11:30:14.070Z,4.00
2018-02-24T11:32:40.281Z,4.10
2018-02-24T11:35:06.548Z,4.00
2018-02-24T11:37:32.851Z,3.90
2018-02-24T11:39:59.128Z,4.00
2018-02-24T11:42:25.381Z,4.30
2018-02-24T11:44:52.360Z,4.50
2018-02-24T11:47:19.308Z,4.60
2018-02-24T11:49:46.323Z,4.20
2018-02-24T11:52:12.530Z,4.10
2018-02-24T11:54:39.012Z,4.00
2018-02-24T11:57:05.238Z,4.20
2018-02-24T11:59:31.449Z,4.10
2018-02-24T12:01:58.401Z,4.00
2018-02-24T12:04:25.395Z,4.30
2018-02-24T12:06:51.638Z,4.20
2018-02-24T12:09:18.104Z,4.10
2018-02-24T12:11:45.123Z,4.40
2018-02-24T12:14:11.365Z,4.30
2018-02-24T12:16:37.604Z,4.50
2018-02-24T12:19:03.800Z,4.80
2018-02-24T12:21:30.022Z,4.60
2018-02-24T12:23:56.231Z,4.30
2018-02-24T12:26:22.523Z,4.10
2018-02-24T12:28:48.700Z,4.30
2018-02-24T12:31:14.918Z,4.30
2018-02-24T12:33:41.873Z,4.60
2018-02-24T12:36:08.140Z,4.60
2018-02-24T12:38:34.369Z,4.80
2018-02-24T12:41:00.703Z,4.30
2018-02-24T12:43:26.981Z,4.30
2018-02-24T12:45:53.216Z,4.60
2018-02-24T12:48:19.454Z,4.80
2018-02-24T12:50:45.789Z,5.20
2018-02-24T12:53:12.053Z,5.10
2018-02-24T12:55:38.286Z,4.80
2018-02-24T12:58:04.524Z,4.40
2018-02-24T13:00:30.777Z,4.40
2018-02-24T13:02:56.967Z,4.50
2018-02-24T13:05:23.946Z,4.70
2018-02-24T13:07:50.231Z,4.60
2018-02-24T13:10:16.469Z,4.50
2018-02-24T13:12:42.675Z,4.50
2018-02-24T13:15:08.894Z,4.70
2018-02-24T13:17:35.086Z,4.50
2018-02-24T13:20:01.314Z,4.60
2018-02-24T13:22:27.518Z,4.60
2018-02-24T13:24:53.773Z,4.40
2018-02-24T13:27:19.798Z,4.50
2018-02-24T13:29:45.820Z,4.20
2018-02-24T13:32:11.886Z,4.30
2018-02-24T13:34:37.910Z,4.10
2018-02-24T13:37:03.942Z,3.70
2018-02-24T13:39:29.969Z,3.60
2018-02-24T13:41:55.993Z,3.50
2018-02-24T13:44:22.778Z,3.90
2018-02-24T13:46:48.866Z,3.90
2018-02-24T13:49:15.641Z,3.80
2018-02-24T13:51:41.668Z,3.80
2018-02-24T13:54:08.435Z,3.60
2018-02-24T13:56:34.469Z,3.60
2018-02-24T13:59:00.509Z,3.60
2018-02-24T14:01:26.523Z,3.60
2018-02-24T14:03:53.362Z,3.90
2018-02-24T14:06:19.399Z,3.90
2018-02-24T14:08:45.414Z,4.10
2018-02-24T14:11:11.527Z,4.00
2018-02-24T14:13:37.542Z,4.10
2018-02-24T14:16:03.578Z,4.20
2018-02-24T14:18:29.645Z,4.40
2018-02-24T14:20:55.720Z,4.60
2018-02-24T14:23:21.778Z,4.20
2018-02-24T14:25:47.834Z,3.70
2018-02-24T14:28:13.874Z,3.50
2018-02-24T14:30:39.919Z,3.10
2018-02-24T14:33:05.936Z,3.10
2018-02-24T14:35:31.961Z,3.10
2018-02-24T14:38:00.941Z,2.80
2018-02-24T14:40:27.033Z,2.80
2018-02-24T14:42:53.123Z,2.80
2018-02-24T14:45:19.158Z,2.80
2018-02-24T14:47:45.179Z,2.90
2018-02-24T14:50:11.742Z,3.00
2018-02-24T14:52:37.780Z,3.10
2018-02-24T14:55:06.944Z,3.20
2018-02-24T14:57:35.220Z,3.10
2018-02-24T15:00:01.256Z,3.10
2018-02-24T15:02:27.996Z,3.00
2018-02-24T15:04:54.808Z,3.00
2018-02-24T15:07:20.859Z,3.00
2018-02-24T15:09:46.885Z,2.80
2018-02-24T15:12:15.939Z,2.60
2018-02-24T15:14:42.781Z,2.40
2018-02-24T15:17:08.856Z,2.40
2018-02-24T15:19:35.612Z,2.10
2018-02-24T15:22:01.670Z,2.10
2018-02-24T15:24:27.692Z,2.00
2018-02-24T15:26:53.747Z,2.00
2018-02-24T15:29:19.908Z,1.90
2018-02-24T15:31:45.953Z,1.90
2018-02-24T15:34:12.331Z,2.00
2018-02-24T15:36:38.419Z,2.00
2018-02-24T15:39:04.554Z,1.90
2018-02-24T15:41:30.600Z,1.80
2018-02-24T15:43:56.802Z,1.80
2018-02-24T15:46:22.913Z,1.80
2018-02-24T15:48:48.940Z,1.80
2018-02-24T15:51:15.719Z,1.90
2018-02-24T15:53:42.164Z,1.80
2018-02-24T15:56:08.427Z,1.90
2018-02-24T15:58:34.504Z,2.00
2018-02-24T16:01:01.477Z,1.90
2018-02-24T16:03:27.491Z,1.80
2018-02-24T16:05:53.521Z,1.80
2018-02-24T16:08:19.578Z,1.90
2018-02-24T16:10:46.409Z,1.70
2018-02-24T16:13:12.488Z,1.70
2018-02-24T16:15:39.371Z,1.70
2018-02-24T16:18:05.413Z,1.60
2018-02-24T16:20:31.502Z,1.70
2018-02-24T16:22:57.620Z,1.60
2018-02-24T16:25:23.681Z,1.60
2018-02-24T16:27:50.517Z,1.60
2018-02-24T16:30:16.561Z,1.60
2018-02-24T16:32:42.635Z,1.60
2018-02-24T16:35:08.680Z,1.80
2018-02-24T16:37:34.700Z,1.60
2018-02-24T16:40:01.769Z,1.50
2018-02-24T16:42:27.857Z,1.50
2018-02-24T16:44:53.942Z,1.50
2018-02-24T16:47:20.020Z,1.60
2018-02-24T16:49:46.103Z,1.30
2018-02-24T16:52:12.145Z,1.30
2018-02-24T16:54:38.974Z,1.50
2018-02-24T16:57:04.985Z,1.40
2018-02-24T16:59:30.984Z,1.50
2018-02-24T17:01:57.065Z,1.40
2018-02-24T17:04:23.121Z,1.60
2018-02-24T17:06:49.138Z,1.40
2018-02-24T17:09:15.215Z,1.30
2018-02-24T17:11:41.274Z,1.10
2018-02-24T17:14:07.329Z,1.20
2018-02-24T17:16:33.364Z,1.30
2018-02-24T17:18:59.567Z,1.30
2018-02-24T17:21:25.817Z,1.20
2018-02-24T17:23:52.822Z,1.10
2018-02-24T17:26:19.017Z,1.10
2018-02-24T17:28:45.237Z,1.00
2018-02-24T17:31:11.441Z,1.10
2018-02-24T17:33:37.706Z,0.80
2018-02-24T17:36:03.928Z,1.10
2018-02-24T17:38:30.157Z,1.00
2018-02-24T17:40:57.690Z,1.00
2018-02-24T17:43:24.116Z,0.90
2018-02-24T17:45:50.342Z,0.90
2018-02-24T17:48:17.323Z,0.80
2018-02-24T17:50:43.614Z,0.80
2018-02-24T17:53:09.852Z,1.00
2018-02-24T17:55:36.049Z,0.90
2018-02-24T17:58:03.000Z,0.70
2018-02-24T18:00:29.960Z,0.70
2018-02-24T18:02:56.181Z,0.70
2018-02-24T18:05:22.518Z,0.70
2018-02-24T18:07:49.513Z,0.70
2018-02-24T18:10:16.494Z,0.70
2018-02-24T18:12:42.772Z,0.70
2018-02-24T18:15:08.997Z,0.70
2018-02-24T18:17:35.249Z,0.70
2018-02-24T18:20:01.755Z,0.70
2018-02-24T18:22:28.824Z,0.50
2018-02-24T18:24:55.033Z,0.50
2018-02-24T18:27:21.307Z,0.50
2018-02-24T18:29:47.593Z,0.50
2018-02-24T18:32:13.800Z,0.50
2018-02-24T18:34:40.733Z,0.40
2018-02-24T18:37:07.726Z,0.40
2018-02-24T18:39:36.057Z,0.40
2018-02-24T18:42:02.288Z,0.40
2018-02-24T18:44:28.513Z,0.40
2018-02-24T18:46:54.755Z,0.30
2018-02-24T18:49:21.034Z,0.30
2018-02-24T18:51:47.989Z,0.30
2018-02-24T18:54:14.209Z,0.30
2018-02-24T18:56:40.982Z,0.20
2018-02-24T18:59:07.021Z,0.20
2018-02-24T19:01:33.205Z,0.20
2018-02-24T19:03:59.225Z,0.20
2018-02-24T19:06:25.246Z,0.20
2018-02-24T19:08:51.261Z,0.10
2018-02-24T19:11:17.306Z,0.20
2018-02-24T19:13:43.705Z,0.30
2018-02-24T19:16:10.530Z,0.10
2018-02-24T19:18:36.561Z,0.10
2018-02-24T19:21:02.626Z,0.00
2018-02-24T19:23:29.684Z,0.00
2018-02-24T19:25:55.711Z,0.10
2018-02-24T19:28:21.745Z,0.20
2018-02-24T19:30:47.794Z,0.00
2018-02-24T19:33:14.126Z,0.00
2018-02-24T19:35:40.165Z,-0.10
2018-02-24T19:38:06.208Z,-0.10
2018-02-24T19:40:32.239Z,-0.10
2018-02-24T19:42:58.277Z,-0.20
2018-02-24T19:45:24.367Z,-0.20
2018-02-24T19:47:50.424Z,-0.30
2018-02-24T19:50:16.681Z,-0.30
2018-02-24T19:52:42.830Z,-0.30
2018-02-24T19:55:08.992Z,-0.30
2018-02-24T19:57:35.838Z,-0.30
2018-02-24T20:00:01.865Z,-0.30
2018-02-24T20:02:27.915Z,-0.20
2018-02-24T20:04:54.080Z,-0.30
2018-02-24T20:07:20.840Z,-0.30
2018-02-24T20:09:46.881Z,-0.30
2018-02-24T20:12:12.975Z,-0.40
2018-02-24T20:14:39.142Z,-0.40
2018-02-24T20:17:05.972Z,-0.40
2018-02-24T20:19:32.161Z,-0.40
2018-02-24T20:21:58.216Z,-0.40
2018-02-24T20:24:25.014Z,-0.40
2018-02-24T20:26:51.864Z,-0.40
2018-02-24T20:29:17.958Z,-0.50
2018-02-24T20:31:44.007Z,-0.50
2018-02-24T20:34:10.040Z,-0.50
2018-02-24T20:36:36.192Z,-0.60
2018-02-24T20:39:02.243Z,-0.60
2018-02-24T20:41:28.997Z,-0.50
2018-02-24T20:43:55.017Z,-0.60
2018-02-24T20:46:21.058Z,-0.60
2018-02-24T20:48:47.092Z,-0.60
2018-02-24T20:51:13.128Z,-0.70
2018-02-24T20:53:39.154Z,-0.60
2018-02-24T20:56:05.193Z,-0.70
2018-02-24T20:58:31.266Z,-0.60
2018-02-24T21:00:58.082Z,-0.60
2018-02-24T21:03:24.869Z,-0.70
2018-02-24T21:05:51.645Z,-0.70
2018-02-24T21:08:17.786Z,-0.70
2018-02-24T21:10:43.850Z,-0.80
2018-02-24T21:13:09.872Z,-0.80
2018-02-24T21:15:35.908Z,-0.80
2018-02-24T21:18:02.078Z,-0.70
2018-02-24T21:20:28.949Z,-0.80
2018-02-24T21:25:27.766Z,-0.90
2018-02-24T21:27:55.073Z,-1.00
2018-02-24T21:30:21.109Z,-1.00
2018-02-24T21:32:47.142Z,-0.90
2018-02-24T21:35:13.226Z,-0.90
2018-02-24T21:37:39.262Z,-1.00
2018-02-24T21:40:05.287Z,-1.00
2018-02-24T21:42:31.317Z,-1.00
2018-02-24T21:44:57.613Z,-1.00
2018-02-24T21:47:24.452Z,-1.10
2018-02-24T21:49:50.493Z,-1.10
2018-02-24T21:52:16.522Z,-1.00
2018-02-24T21:54:42.550Z,-1.10
2018-02-24T21:57:08.626Z,-1.10
2018-02-24T21:59:34.690Z,-1.30
2018-02-24T22:02:00.713Z,-1.20
2018-02-24T22:04:26.776Z,-1.20
2018-02-24T22:06:53.576Z,-1.30
2018-02-24T22:09:20.418Z,-1.20
2018-02-24T22:11:46.499Z,-1.20
2018-02-24T22:14:12.536Z,-1.30
2018-02-24T22:16:38.572Z,-1.10
2018-02-24T22:19:04.655Z,-1.30
2018-02-24T22:21:30.689Z,-1.20
2018-02-24T22:23:56.698Z,-1.00
2018-02-24T22:26:22.847Z,-1.30
2018-02-24T22:28:49.576Z,-1.30
2018-02-24T22:31:15.629Z,-1.30
2018-02-24T22:33:41.753Z,-1.30
2018-02-24T22:36:07.789Z,-1.30
2018-02-24T22:38:33.801Z,-1.50
2018-02-24T22:40:59.829Z,-1.50
2018-02-24T22:43:26.610Z,-1.50
2018-02-24T22:45:52.903Z,-1.50
2018-02-24T22:48:25.907Z,-1.40
2018-02-24T22:50:51.929Z,-1.40
2018-02-24T22:53:17.953Z,-1.50
2018-02-24T22:55:44.027Z,-1.70
2018-02-24T22:58:10.819Z,-1.60
2018-02-24T23:00:36.859Z,-1.60
2018-02-24T23:03:03.637Z,-1.70
2018-02-24T23:05:29.644Z,-1.70
2018-02-24T23:07:56.021Z,-1.70
2018-02-24T23:10:22.069Z,-1.70
2018-02-24T23:12:48.102Z,-1.80
2018-02-24T23:15:14.148Z,-1.70
2018-02-24T23:17:40.932Z,-1.70
2018-02-24T23:20:06.962Z,-1.70
2018-02-24T23:22:33.041Z,-1.70
2018-02-24T23:24:59.077Z,-1.80
2018-02-24T23:27:25.121Z,-1.80
2018-02-24T23:29:51.325Z,-1.70
2018-02-24T23:32:17.572Z,-1.80
2018-02-24T23:34:44.546Z,-1.80
2018-02-24T23:37:11.118Z,-1.90
2018-02-24T23:39:37.157Z,-1.80
2018-02-24T23:42:03.383Z,-1.80
2018-02-24T23:44:29.590Z,-1.80
2018-02-24T23:46:55.831Z,-1.80
2018-02-24T23:49:22.077Z,-1.80
2018-02-24T23:51:49.081Z,-1.80
2018-02-24T23:54:15.277Z,-1.90
2018-02-24T23:56:41.520Z,-1.90
2018-02-24T23:59:07.750Z,-2.00
